Time;durP1;ratioP1;P1;durP2;ratioP2;P2;SDS_P1;SDS_P2;PMS_P1;PMS_P2;Temp;Humidity;BMP_temperature;BMP_pressure;BME280_temperature;BME280_humidity;BME280_pressure;Samples;Min_cycle;Max_cycle;Signal;HPM_P1;HPM_P2
2023/02/09 00:01:56;;;;;;;7.90;4.60;;;;;;;-7.99;61.53;96820.00;5129680;27;20432;-74
2023/02/09 00:04:22;;;;;;;11.30;4.85;;;;;;;-7.96;61.03;96820.06;5114208;27;20023;-74
2023/02/09 00:06:47;;;;;;;6.90;4.15;;;;;;;-7.85;61.06;96827.88;5131288;27;20027;-75
2023/02/09 00:09:13;;;;;;;7.30;4.35;;;;;;;-7.88;61.24;96825.28;5095590;28;20032;-74
2023/02/09 00:14:22;;;;;;;9.00;3.83;;;;;;;-7.83;60.96;96815.25;5110998;28;20038;-74
2023/02/09 00:16:49;;;;;;;8.32;4.00;;;;;;;-7.90;61.04;96814.28;5114374;27;20031;-74
2023/02/09 00:19:14;;;;;;;8.02;4.47;;;;;;;-8.18;61.21;96775.88;5110961;27;20103;-74
2023/02/09 00:21:40;;;;;;;5.18;3.42;;;;;;;-7.79;60.76;96822.94;5104536;27;20482;-75
2023/02/09 00:24:05;;;;;;;8.27;4.45;;;;;;;-8.13;60.64;96766.75;5128485;27;20054;-74
2023/02/09 00:26:31;;;;;;;5.80;3.38;;;;;;;-8.19;60.54;96794.38;5113676;27;20042;-74
2023/02/09 00:28:56;;;;;;;6.82;3.80;;;;;;;-8.10;61.05;96818.94;5105254;28;20425;-74
2023/02/09 00:31:22;;;;;;;8.88;4.63;;;;;;;-8.14;61.32;96823.03;5099745;27;20151;-75
2023/02/09 00:33:47;;;;;;;9.60;4.32;;;;;;;-8.29;61.73;96812.63;5132120;27;20031;-74
2023/02/09 00:36:13;;;;;;;7.43;4.38;;;;;;;-8.26;61.63;96821.94;5130819;27;20019;-74
2023/02/09 00:38:39;;;;;;;6.93;4.13;;;;;;;-8.17;61.56;96817.09;5128638;27;20028;-74
2023/02/09 00:41:05;;;;;;;5.28;3.67;;;;;;;-8.33;61.60;96810.84;5112753;27;20118;-75
2023/02/09 00:43:30;;;;;;;5.75;3.65;;;;;;;-8.21;61.24;96811.13;5113714;27;20041;-74
2023/02/09 00:45:56;;;;;;;6.63;4.00;;;;;;;-8.26;61.05;96814.38;5096510;27;20027;-75
2023/02/09 00:48:21;;;;;;;7.07;3.33;;;;;;;-8.16;61.03;96812.09;5130136;27;20038;-74
2023/02/09 00:50:49;;;;;;;5.65;3.90;;;;;;;-8.30;61.31;96805.91;5130790;27;20027;-75
2023/02/09 00:53:14;;;;;;;6.85;3.70;;;;;;;-8.39;61.06;96778.81;5129640;27;20027;-75
2023/02/09 00:55:40;;;;;;;6.40;3.83;;;;;;;-8.18;61.29;96791.00;5131717;27;20469;-75
2023/02/09 00:58:05;;;;;;;6.25;3.58;;;;;;;-8.20;61.09;96784.22;5110166;28;20040;-75
2023/02/09 01:00:30;;;;;;;4.93;3.22;;;;;;;-8.10;60.81;96801.28;5130560;28;20024;-75
2023/02/09 01:02:56;;;;;;;6.57;3.25;;;;;;;-8.07;60.80;96800.50;5092157;28;20032;-74
2023/02/09 01:05:22;;;;;;;5.43;3.33;;;;;;;-8.14;60.85;96779.31;5092855;28;20409;-74
2023/02/09 01:07:47;;;;;;;6.13;3.50;;;;;;;-8.04;60.58;96791.31;5076717;28;20035;-74
2023/02/09 01:10:12;;;;;;;7.85;3.80;;;;;;;-8.12;60.97;96772.63;5112240;28;20028;-75
2023/02/09 01:12:39;;;;;;;5.82;3.60;;;;;;;-8.04;61.19;96787.94;5109430;28;20563;-74
2023/02/09 01:15:05;;;;;;;6.00;3.83;;;;;;;-8.05;60.77;96781.16;5091851;28;20126;-74
2023/02/09 01:17:31;;;;;;;5.53;3.33;;;;;;;-7.99;60.65;96788.88;5113386;28;20026;-74
2023/02/09 01:19:56;;;;;;;7.47;4.20;;;;;;;-8.15;60.74;96778.47;5130377;28;20027;-74
2023/02/09 01:22:22;;;;;;;6.93;3.50;;;;;;;-8.32;61.20;96769.69;5131973;27;20060;-74
2023/02/09 01:24:47;;;;;;;6.55;3.90;;;;;;;-8.26;60.98;96769.81;5128600;28;20076;-75
2023/02/09 01:27:12;;;;;;;7.10;4.40;;;;;;;-8.21;61.29;96778.34;5112182;28;20530;-74
2023/02/09 01:29:38;;;;;;;7.88;4.63;;;;;;;-8.29;61.08;96767.25;5131101;27;20031;-74
2023/02/09 01:32:04;;;;;;;7.70;4.63;;;;;;;-8.33;61.34;96778.06;5117143;27;20047;-74
2023/02/09 01:34:29;;;;;;;5.10;3.80;;;;;;;-8.24;61.25;96769.88;5122350;27;20024;-75
2023/02/09 01:36:55;;;;;;;8.00;4.90;;;;;;;-8.17;61.20;96764.13;5114675;28;20020;-74
2023/02/09 01:39:20;;;;;;;6.60;3.95;;;;;;;-8.21;61.26;96767.41;5114806;27;20507;-74
2023/02/09 01:41:46;;;;;;;5.70;3.40;;;;;;;-8.23;61.45;96764.84;5115018;28;20039;-75
2023/02/09 01:44:11;;;;;;;5.80;3.67;;;;;;;-8.25;62.07;96756.38;5102595;27;20034;-74
2023/02/09 01:46:37;;;;;;;5.57;3.53;;;;;;;-8.32;62.32;96755.41;5121183;27;20142;-74
2023/02/09 01:49:07;;;;;;;8.38;3.97;;;;;;;-8.46;62.23;96745.91;5113400;28;20114;-74
2023/02/09 01:51:39;;;;;;;8.10;4.37;;;;;;;-8.51;61.37;96747.47;5114540;27;20118;-75
2023/02/09 01:54:11;;;;;;;9.43;5.07;;;;;;;-8.73;62.38;96743.59;5102769;27;20409;-75
2023/02/09 01:56:37;;;;;;;6.57;4.18;;;;;;;-8.79;62.46;96746.84;5133909;27;20119;-74
2023/02/09 01:59:03;;;;;;;9.25;4.22;;;;;;;-8.82;62.65;96757.69;5115048;27;20489;-75
2023/02/09 02:01:28;;;;;;;8.40;3.90;;;;;;;-8.92;63.12;96734.78;5116582;27;20084;-74
2023/02/09 02:03:54;;;;;;;10.25;5.38;;;;;;;-9.16;62.96;96733.41;5115651;27;20031;-75
2023/02/09 02:06:19;;;;;;;20.10;8.05;;;;;;;-9.04;63.38;96753.81;5133650;27;20035;-75
2023/02/09 02:09:05;;;;;;;14.27;7.03;;;;;;;-8.98;63.12;96759.81;5114377;27;20397;-75
2023/02/09 02:11:31;;;;;;;9.18;5.22;;;;;;;-8.94;62.63;96754.03;5096180;28;20043;-75
2023/02/09 02:13:57;;;;;;;8.82;3.92;;;;;;;-9.05;62.75;96739.53;5114151;28;20023;-74
2023/02/09 02:16:45;;;;;;;6.03;3.60;;;;;;;-8.96;62.07;96740.56;5095748;28;20112;-74
2023/02/09 02:19:57;;;;;;;9.73;4.85;;;;;;;-8.96;62.28;96748.97;5115488;27;20070;-74
2023/02/09 02:22:52;;;;;;;5.68;3.50;;;;;;;-8.91;62.35;96749.06;5077902;28;20055;-75
2023/02/09 02:25:20;;;;;;;9.88;4.10;;;;;;;-9.04;62.81;96751.31;5121954;27;20047;-74
2023/02/09 02:27:49;;;;;;;7.50;4.05;;;;;;;-9.01;62.91;96741.28;5134392;27;20035;-75
2023/02/09 02:30:42;;;;;;;7.63;3.60;;;;;;;-9.08;63.64;96749.53;5132152;27;20035;-74
2023/02/09 02:33:17;;;;;;;5.57;3.53;;;;;;;-9.00;63.09;96753.09;5132746;27;20051;-75
2023/02/09 02:35:46;;;;;;;5.03;3.22;;;;;;;-9.27;63.96;96743.19;5118817;27;20039;-75
2023/02/09 02:38:23;;;;;;;5.43;3.45;;;;;;;-9.39;64.16;96744.53;5116296;27;20110;-74
2023/02/09 02:40:53;;;;;;;7.25;3.55;;;;;;;-9.40;64.19;96716.00;5117448;27;20036;-74
2023/02/09 02:43:41;;;;;;;7.03;3.67;;;;;;;-9.28;63.49;96740.63;5095497;28;20085;-75
2023/02/09 02:46:20;;;;;;;5.30;3.10;;;;;;;-9.23;63.57;96734.03;5121764;27;20042;-74
2023/02/09 02:49:03;;;;;;;6.43;3.33;;;;;;;-9.31;63.59;96722.94;5115976;27;20390;-74
2023/02/09 02:51:30;;;;;;;6.60;3.70;;;;;;;-9.39;63.94;96731.97;5116979;27;20026;-75
2023/02/09 02:53:58;;;;;;;7.90;3.67;;;;;;;-9.30;63.70;96725.50;5137125;27;20412;-74
2023/02/09 02:56:42;;;;;;;6.45;4.03;;;;;;;-9.61;64.00;96701.25;5141105;27;20114;-74
2023/02/09 02:59:11;;;;;;;8.18;3.70;;;;;;;-9.33;63.26;96717.00;5110050;27;20114;-74
2023/02/09 03:01:39;;;;;;;7.30;4.32;;;;;;;-9.45;63.64;96718.41;5092759;27;20028;-75
2023/02/09 03:04:05;;;;;;;7.47;3.78;;;;;;;-9.38;63.54;96708.50;5127283;27;20062;-75
2023/02/09 03:06:31;;;;;;;5.95;3.30;;;;;;;-9.30;62.81;96685.22;5093798;27;20398;-74
2023/02/09 03:08:57;;;;;;;7.28;3.45;;;;;;;-9.27;62.85;96702.06;5090719;27;20032;-74
2023/02/09 03:11:24;;;;;;;6.53;4.00;;;;;;;-9.19;62.88;96717.34;5093751;27;20462;-75
2023/02/09 03:14:13;;;;;;;7.57;3.83;;;;;;;-9.22;62.50;96715.59;5129475;27;20515;-74
2023/02/09 03:16:44;;;;;;;8.05;4.18;;;;;;;-9.29;62.84;96712.09;5126601;27;20103;-75
2023/02/09 03:19:22;;;;;;;;;;;;;;;-9.26;62.79;96709.66;5129877;27;20024;-74
2023/02/09 03:21:52;;;;;;;5.93;3.17;;;;;;;-9.13;62.57;96712.47;5127812;27;20022;-74
2023/02/09 03:24:17;;;;;;;4.97;3.22;;;;;;;-9.05;61.84;96709.31;5107313;27;20244;-74
2023/02/09 03:26:49;;;;;;;5.15;3.13;;;;;;;-9.08;61.79;96705.84;5128808;27;20157;-75
2023/02/09 03:29:15;;;;;;;5.28;3.55;;;;;;;-8.99;61.43;96703.56;5094484;27;20035;-74
2023/02/09 03:31:41;;;;;;;6.32;3.63;;;;;;;-9.32;61.71;96658.31;5109859;27;20075;-75
2023/02/09 03:34:06;;;;;;;6.90;3.95;;;;;;;-8.96;61.59;96683.47;5109939;27;20477;-74
2023/02/09 03:36:34;;;;;;;6.00;3.33;;;;;;;-8.93;60.88;96682.69;5109719;27;20063;-74
2023/02/09 03:39:00;;;;;;;6.38;3.72;;;;;;;-8.97;61.53;96701.91;5111277;27;20035;-75
2023/02/09 03:41:26;;;;;;;6.35;3.60;;;;;;;-9.08;61.52;96698.28;5104168;27;20102;-75
2023/02/09 03:46:35;;;;;;;5.80;3.38;;;;;;;-8.99;61.27;96690.97;5121352;27;20058;-74
2023/02/09 03:49:00;;;;;;;5.53;3.13;;;;;;;-8.90;61.51;96700.41;5116982;27;20063;-75
2023/02/09 03:51:26;;;;;;;5.35;3.13;;;;;;;-8.88;61.14;96702.13;5118669;27;20023;-74
2023/02/09 03:53:51;;;;;;;5.50;3.70;;;;;;;-8.82;61.65;96706.47;5092572;27;20027;-75
2023/02/09 03:56:17;;;;;;;6.70;3.30;;;;;;;-9.02;61.43;96686.72;5114962;27;20035;-72
2023/02/09 03:58:42;;;;;;;5.13;3.13;;;;;;;-9.03;61.07;96682.47;5114301;27;20040;-74
2023/02/09 04:01:08;;;;;;;5.68;3.33;;;;;;;-8.91;61.48;96697.03;5120394;27;20048;-74
2023/02/09 04:03:34;;;;;;;4.18;2.80;;;;;;;-8.86;60.77;96700.50;5105829;27;20084;-74
2023/02/09 04:06:00;;;;;;;6.25;3.58;;;;;;;-8.92;61.20;96694.47;5105225;27;20027;-74
2023/02/09 04:08:28;;;;;;;7.90;3.60;;;;;;;-8.87;60.98;96697.94;5090657;27;20038;-75
2023/02/09 04:10:54;;;;;;;6.68;3.92;;;;;;;-8.89;60.77;96695.38;5087344;27;20658;-74
2023/02/09 04:13:19;;;;;;;5.75;2.95;;;;;;;-8.85;60.77;96707.25;5120683;27;20066;-75
2023/02/09 04:15:45;;;;;;;5.22;3.35;;;;;;;-8.94;60.79;96707.03;5123742;27;20035;-73
2023/02/09 04:18:10;;;;;;;5.63;3.30;;;;;;;-8.86;60.50;96708.06;5124384;27;20046;-74
2023/02/09 04:20:36;;;;;;;5.78;3.63;;;;;;;-8.91;60.95;96702.06;5126982;27;20136;-75
2023/02/09 04:23:01;;;;;;;7.75;4.25;;;;;;;-8.89;60.38;96704.59;5130955;27;20084;-74
2023/02/09 04:25:27;;;;;;;6.45;3.25;;;;;;;-8.89;60.32;96694.53;5123862;27;20030;-74
2023/02/09 04:27:52;;;;;;;4.95;2.95;;;;;;;-8.84;60.30;96693.81;5125796;27;20074;-75
2023/02/09 04:30:18;;;;;;;5.85;3.58;;;;;;;-8.85;60.49;96686.25;5122911;27;20054;-74
2023/02/09 04:32:44;;;;;;;5.63;3.30;;;;;;;-8.94;60.84;96679.34;5105817;28;20039;-74
2023/02/09 04:35:09;;;;;;;7.43;3.40;;;;;;;-8.93;60.93;96691.09;5089539;27;20485;-74
2023/02/09 04:37:35;;;;;;;8.30;3.55;;;;;;;-9.04;61.28;96692.53;5132641;27;20031;-74
2023/02/09 04:40:00;;;;;;;13.00;7.53;;;;;;;-9.16;61.54;96693.09;5127279;27;20031;-75
2023/02/09 04:42:25;;;;;;;13.63;7.65;;;;;;;-9.21;61.64;96692.13;5091329;28;20028;-75
2023/02/09 04:44:51;;;;;;;6.70;4.03;;;;;;;-9.13;61.51;96698.22;5108179;27;20036;-74
2023/02/09 04:47:16;;;;;;;8.43;4.28;;;;;;;-9.20;61.63;96698.88;5124679;27;20409;-75
2023/02/09 04:49:43;;;;;;;6.68;3.80;;;;;;;-9.63;62.41;96685.25;5091711;27;20043;-75
2023/02/09 04:52:08;;;;;;;9.23;4.00;;;;;;;-9.50;62.25;96704.88;5127795;27;20027;-74
2023/02/09 04:54:34;;;;;;;5.75;3.33;;;;;;;-9.56;62.34;96704.69;5106649;27;20043;-75
2023/02/09 04:59:44;;;;;;;14.18;7.68;;;;;;;-9.86;63.17;96679.66;5122444;28;20046;-75
2023/02/09 05:02:10;;;;;;;21.42;11.70;;;;;;;-9.73;63.60;96700.91;5128698;27;20063;-74
2023/02/09 05:04:35;;;;;;;20.33;11.38;;;;;;;-9.89;63.58;96682.06;5128492;27;20055;-75
2023/02/09 05:07:01;;;;;;;21.48;11.13;;;;;;;-9.64;63.84;96707.84;5129079;27;20027;-74
2023/02/09 05:09:26;;;;;;;10.50;5.88;;;;;;;-9.64;63.63;96706.16;5112151;27;20130;-74
2023/02/09 05:11:51;;;;;;;5.85;3.70;;;;;;;-9.69;62.57;96707.75;5131138;27;20023;-74
2023/02/09 05:14:17;;;;;;;6.00;3.55;;;;;;;-9.87;63.10;96718.16;5131109;27;20038;-74
2023/02/09 05:16:42;;;;;;;4.97;3.28;;;;;;;-9.95;62.87;96710.41;5128651;27;20042;-74
2023/02/09 05:19:08;;;;;;;6.72;4.18;;;;;;;-10.14;62.39;96668.84;5125298;27;20032;-74
2023/02/09 05:21:33;;;;;;;6.97;3.58;;;;;;;-9.88;62.50;96705.56;5130702;27;20060;-75
2023/02/09 05:23:58;;;;;;;5.63;3.20;;;;;;;-9.95;63.07;96700.34;5132975;27;20061;-74
2023/02/09 05:26:24;;;;;;;4.32;2.72;;;;;;;-9.69;62.64;96717.81;5129890;27;20690;-75
2023/02/09 05:28:49;;;;;;;6.43;3.22;;;;;;;-9.68;61.49;96710.28;5129996;27;20413;-74
2023/02/09 05:31:15;;;;;;;9.15;4.65;;;;;;;-9.77;62.11;96709.22;5131973;27;20027;-74
2023/02/09 05:33:41;;;;;;;13.18;6.70;;;;;;;-9.99;62.26;96695.22;5130112;27;20039;-75
2023/02/09 05:36:08;;;;;;;14.43;8.70;;;;;;;-9.98;62.97;96717.88;5111416;27;21394;-75
2023/02/09 05:38:34;;;;;;;16.75;9.88;;;;;;;-10.17;63.11;96703.97;5130017;27;20146;-75
2023/02/09 05:41:07;;;;;;;14.00;7.70;;;;;;;-10.03;63.08;96719.41;5113339;27;20477;-74
2023/02/09 05:43:33;;;;;;;10.68;5.85;;;;;;;-10.04;63.21;96704.31;5130991;27;20504;-74
2023/02/09 05:45:58;;;;;;;10.27;5.80;;;;;;;-9.94;63.03;96719.69;5112748;27;20058;-74
2023/02/09 05:48:24;;;;;;;23.90;12.07;;;;;;;-10.00;63.01;96729.59;5115976;27;20432;-74
2023/02/09 05:50:49;;;;;;;16.63;8.80;;;;;;;-9.90;63.25;96721.44;5112585;27;20023;-74
2023/02/09 05:53:15;;;;;;;8.88;3.88;;;;;;;-9.94;63.20;96716.31;5124645;27;20420;-74
2023/02/09 05:55:41;;;;;;;5.95;3.63;;;;;;;-9.72;63.06;96730.28;5128668;27;20038;-74
2023/02/09 05:58:06;;;;;;;4.30;2.80;;;;;;;-9.81;62.62;96709.94;5110829;27;20027;-75
2023/02/09 06:00:31;;;;;;;6.40;3.75;;;;;;;-9.57;62.26;96725.66;5110897;27;20026;-74
2023/02/09 06:02:57;;;;;;;4.35;3.15;;;;;;;-9.60;61.97;96723.06;5112700;27;20055;-75
2023/02/09 06:05:23;;;;;;;5.30;2.97;;;;;;;-9.46;60.90;96724.25;5106708;27;20436;-74
2023/02/09 06:07:48;;;;;;;4.88;3.42;;;;;;;-9.49;60.85;96726.72;5131441;27;20027;-75
2023/02/09 06:10:15;;;;;;;5.78;3.55;;;;;;;-9.30;60.62;96719.63;5112174;27;20027;-75
2023/02/09 06:12:40;;;;;;;3.85;2.65;;;;;;;-9.30;60.76;96724.66;5129423;27;20530;-75
2023/02/09 06:15:06;;;;;;;6.20;3.10;;;;;;;-9.17;60.23;96726.63;5107961;27;20036;-75
2023/02/09 06:17:31;;;;;;;4.65;3.00;;;;;;;-9.18;60.40;96714.88;5109289;27;20509;-75
2023/02/09 06:19:57;;;;;;;3.25;2.35;;;;;;;-9.08;59.88;96703.34;5107765;27;20035;-75
2023/02/09 06:22:22;;;;;;;5.32;3.03;;;;;;;-9.05;59.99;96701.75;5117938;27;20034;-75
2023/02/09 06:24:48;;;;;;;4.35;2.80;;;;;;;-9.13;59.98;96694.84;5129496;27;20042;-75
2023/02/09 06:27:13;;;;;;;6.00;3.10;;;;;;;-8.97;60.08;96717.03;5128426;27;20053;-75
2023/02/09 06:29:39;;;;;;;6.10;3.47;;;;;;;-8.95;60.16;96719.59;5123684;27;20091;-75
2023/02/09 06:32:04;;;;;;;6.40;4.05;;;;;;;-9.06;59.95;96684.91;5122893;27;20112;-77
2023/02/09 06:34:30;;;;;;;4.13;3.00;;;;;;;-8.81;60.30;96719.06;5107677;27;20062;-75
2023/02/09 06:36:55;;;;;;;5.53;3.53;;;;;;;-8.61;59.67;96711.09;5122090;27;20036;-75
2023/02/09 06:39:21;;;;;;;5.20;3.28;;;;;;;-8.59;60.24;96706.97;5110477;27;20504;-75
2023/02/09 06:41:46;;;;;;;6.43;3.35;;;;;;;-8.58;60.62;96706.13;5121132;27;20034;-75
2023/02/09 06:44:12;;;;;;;5.38;3.88;;;;;;;-8.51;61.22;96707.13;5098772;27;20065;-75
2023/02/09 06:46:37;;;;;;;6.07;3.30;;;;;;;-8.48;61.13;96697.94;5117822;27;20420;-75
2023/02/09 06:49:03;;;;;;;24.52;11.43;;;;;;;-8.43;61.20;96705.63;5117361;27;20114;-75
2023/02/09 06:51:29;;;;;;;12.07;6.90;;;;;;;-8.43;61.49;96703.09;5123684;27;20055;-75
2023/02/09 06:53:54;;;;;;;7.95;4.85;;;;;;;-8.48;61.30;96687.88;5124338;27;20420;-75
2023/02/09 06:56:20;;;;;;;5.45;3.20;;;;;;;-8.41;61.33;96699.78;5087432;27;20040;-75
2023/02/09 06:58:46;;;;;;;4.65;3.05;;;;;;;-8.32;61.05;96704.13;5112465;27;20489;-75
2023/02/09 07:01:12;;;;;;;7.20;4.07;;;;;;;-8.41;61.47;96689.72;5113809;27;20031;-75
2023/02/09 07:03:38;;;;;;;7.47;4.28;;;;;;;-8.27;61.52;96706.72;5130571;27;20072;-75
2023/02/09 07:06:11;;;;;;;5.47;3.75;;;;;;;-8.27;61.63;96694.13;5113546;27;20023;-75
2023/02/09 07:08:37;;;;;;;4.97;3.22;;;;;;;-8.20;61.38;96694.28;5097089;27;20130;-75
2023/02/09 07:11:03;;;;;;;6.35;3.33;;;;;;;-8.26;60.58;96690.81;5133189;27;20035;-75
2023/02/09 07:13:30;;;;;;;3.58;2.15;;;;;;;-8.22;60.42;96698.44;5112816;27;20027;-76
2023/02/09 07:15:56;;;;;;;3.60;2.55;;;;;;;-7.97;60.85;96689.66;5108428;27;20146;-75
2023/02/09 07:18:22;;;;;;;5.72;2.97;;;;;;;-6.84;58.83;96700.00;5129866;27;20114;-75
2023/02/09 07:20:59;;;;;;;4.60;3.00;;;;;;;-6.68;58.21;96699.38;5128067;27;20039;-75
2023/02/09 07:23:25;;;;;;;4.43;3.13;;;;;;;-6.52;57.52;96681.06;5116788;27;20030;-75
2023/02/09 07:25:50;;;;;;;5.00;3.10;;;;;;;-5.74;55.50;96683.66;5126852;27;20424;-74
2023/02/09 07:28:16;;;;;;;6.88;3.67;;;;;;;-5.56;54.77;96693.09;5127370;27;20061;-74
2023/02/09 07:30:41;;;;;;;8.85;4.45;;;;;;;-5.27;54.48;96674.78;5125868;27;20251;-75
2023/02/09 07:33:07;;;;;;;10.02;5.53;;;;;;;-5.17;52.17;96679.94;5102738;27;20047;-74
2023/02/09 07:35:33;;;;;;;5.28;3.60;;;;;;;-4.90;53.79;96680.13;5126351;27;20106;-74
2023/02/09 07:37:58;;;;;;;5.70;3.53;;;;;;;-3.90;50.74;96673.88;5129200;27;20495;-75
2023/02/09 07:40:24;;;;;;;5.18;3.78;;;;;;;-2.95;48.64;96685.03;5128454;27;20319;-75
2023/02/09 07:42:52;;;;;;;10.48;6.15;;;;;;;-2.15;45.07;96678.94;5126460;27;20035;-75
2023/02/09 07:45:17;;;;;;;12.02;5.93;;;;;;;-0.75;43.16;96674.69;5128317;27;20038;-75
2023/02/09 07:47:43;;;;;;;10.38;6.63;;;;;;;0.94;41.02;96658.97;5125802;27;20044;-75
2023/02/09 07:50:08;;;;;;;18.00;11.20;;;;;;;2.36;37.73;96650.34;5120116;27;20035;-75
2023/02/09 07:52:34;;;;;;;38.03;22.27;;;;;;;3.63;35.10;96654.19;5094391;27;20035;-75
2023/02/09 07:54:59;;;;;;;33.35;23.23;;;;;;;4.67;33.14;96648.66;5109621;27;20054;-75
2023/02/09 07:57:26;;;;;;;24.65;18.45;;;;;;;5.47;31.25;96636.66;5126345;27;20423;-75
2023/02/09 07:59:52;;;;;;;21.65;14.80;;;;;;;6.29;29.58;96654.47;5110788;27;20023;-75
2023/02/09 08:02:23;;;;;;;27.35;18.65;;;;;;;6.71;28.49;96619.28;5130878;27;20026;-75
2023/02/09 08:04:48;;;;;;;;;;;;;;;7.50;27.87;96640.22;5129737;27;20040;-73
2023/02/09 08:07:14;;;;;;;24.48;17.50;;;;;;;7.78;26.75;96632.13;5121814;27;19928;-73
2023/02/09 08:09:43;;;;;;;16.42;11.10;;;;;;;8.25;25.52;96628.38;5127832;27;20034;-75
2023/02/09 08:12:09;;;;;;;22.48;16.15;;;;;;;8.73;25.59;96640.03;5108350;27;20467;-76
2023/02/09 08:14:42;;;;;;;13.98;9.10;;;;;;;8.85;24.60;96636.84;5127968;27;20051;-76
2023/02/09 08:17:19;;;;;;;19.23;12.55;;;;;;;8.84;25.06;96639.53;5125682;27;20586;-76
2023/02/09 08:19:46;;;;;;;10.80;7.97;;;;;;;7.70;26.08;96648.91;5108945;27;20032;-75
2023/02/09 08:22:12;;;;;;;10.05;7.10;;;;;;;6.17;27.79;96645.44;5110507;27;20118;-76
2023/02/09 08:24:37;;;;;;;10.18;6.90;;;;;;;4.97;29.83;96643.47;5124672;27;20499;-74
2023/02/09 08:27:03;;;;;;;10.27;6.38;;;;;;;3.93;30.57;96652.53;5129314;27;20093;-75
2023/02/09 08:29:28;;;;;;;10.77;7.20;;;;;;;3.36;31.67;96654.00;5111583;27;20038;-75
2023/02/09 08:31:54;;;;;;;10.15;6.50;;;;;;;2.56;33.21;96653.31;5111552;27;20051;-75
2023/02/09 08:34:19;;;;;;;9.05;6.72;;;;;;;1.38;35.28;96636.91;5111757;27;20057;-75
2023/02/09 08:36:45;;;;;;;10.00;6.28;;;;;;;0.53;37.12;96660.41;5111371;27;20038;-75
2023/02/09 08:39:10;;;;;;;9.18;5.95;;;;;;;-1.26;40.73;96642.78;5122032;27;20020;-75
2023/02/09 08:41:36;;;;;;;10.38;7.00;;;;;;;-0.97;41.23;96655.31;5109143;28;20039;-75
2023/02/09 08:44:02;;;;;;;10.15;6.30;;;;;;;-1.23;41.76;96642.75;5110175;28;20027;-75
2023/02/09 08:46:27;;;;;;;9.18;5.90;;;;;;;-1.12;42.39;96659.66;5120667;27;20042;-75
2023/02/09 08:48:53;;;;;;;8.10;5.53;;;;;;;-1.53;42.44;96666.75;5109980;28;20023;-75
2023/02/09 08:51:18;;;;;;;10.02;5.65;;;;;;;-1.81;43.06;96659.28;5110860;28;20023;-75
2023/02/09 08:53:50;;;;;;;12.68;6.05;;;;;;;-2.35;43.03;96645.91;5117636;27;20019;-75
2023/02/09 08:56:16;;;;;;;8.43;5.05;;;;;;;-2.03;44.14;96669.56;5130650;27;20465;-75
2023/02/09 08:58:41;;;;;;;10.68;5.82;;;;;;;-2.02;44.00;96660.22;5124728;27;20043;-75
2023/02/09 09:01:08;;;;;;;8.77;5.70;;;;;;;-2.02;43.83;96650.84;5115717;27;20473;-76
2023/02/09 09:03:34;;;;;;;8.95;5.25;;;;;;;-2.50;45.09;96660.38;5110653;28;20488;-75
2023/02/09 09:06:01;;;;;;;10.00;5.57;;;;;;;-2.36;44.44;96656.94;5117348;28;20044;-76
2023/02/09 09:08:26;;;;;;;7.88;5.53;;;;;;;-2.44;45.11;96663.75;5093286;28;20024;-75
2023/02/09 09:10:52;;;;;;;9.80;6.15;;;;;;;-2.30;45.70;96670.50;5125545;28;20031;-75
2023/02/09 09:13:18;;;;;;;10.30;5.82;;;;;;;-2.66;46.00;96655.31;5124304;28;20541;-75
2023/02/09 09:15:44;;;;;;;10.05;5.20;;;;;;;-2.38;45.77;96669.66;5113175;28;20032;-75
2023/02/09 09:18:09;;;;;;;15.63;8.68;;;;;;;-2.68;46.19;96657.00;5130552;28;20019;-75
2023/02/09 09:20:38;;;;;;;13.10;6.90;;;;;;;-2.71;45.60;96652.78;5130325;28;20094;-75
2023/02/09 09:23:03;;;;;;;7.72;4.85;;;;;;;-2.38;45.01;96664.56;5094540;28;20047;-75
2023/02/09 09:25:29;;;;;;;7.03;4.35;;;;;;;-2.26;44.65;96663.69;5111655;28;20027;-75
2023/02/09 09:27:54;;;;;;;9.00;5.22;;;;;;;-2.36;45.16;96670.53;5098781;28;20501;-76
2023/02/09 09:30:21;;;;;;;8.68;4.97;;;;;;;-2.21;44.34;96640.75;5123376;28;20470;-75
2023/02/09 09:32:46;;;;;;;8.05;4.88;;;;;;;-1.97;44.33;96666.13;5111301;28;20500;-75
2023/02/09 09:35:11;;;;;;;11.07;5.47;;;;;;;-1.97;45.01;96653.41;5099980;28;20080;-75
2023/02/09 09:37:37;;;;;;;7.13;4.13;;;;;;;-1.96;44.61;96664.44;5128966;28;20042;-75
2023/02/09 09:40:03;;;;;;;10.25;5.88;;;;;;;-1.84;45.24;96655.03;5117652;27;20023;-75
2023/02/09 09:42:31;;;;;;;6.90;4.35;;;;;;;-2.12;43.97;96658.53;5101901;28;20032;-75
2023/02/09 09:44:57;;;;;;;5.82;3.33;;;;;;;-2.38;43.73;96649.31;5124176;27;20705;-75
2023/02/09 09:47:36;;;;;;;7.25;4.43;;;;;;;-2.21;44.78;96636.50;5118033;28;20488;-75
2023/02/09 09:50:04;;;;;;;8.77;5.22;;;;;;;-1.98;45.07;96656.78;5102410;27;20526;-75
2023/02/09 09:52:32;;;;;;;8.98;5.25;;;;;;;-1.98;45.21;96626.22;5123549;27;20457;-75
2023/02/09 09:54:57;;;;;;;8.55;4.50;;;;;;;-1.97;44.44;96657.66;5125703;27;20553;-76
2023/02/09 09:57:24;;;;;;;8.73;5.22;;;;;;;-2.05;44.15;96643.22;5115149;28;20031;-75
2023/02/09 09:59:50;;;;;;;8.00;4.47;;;;;;;-1.88;44.44;96625.31;5124215;27;20449;-75
2023/02/09 10:02:22;;;;;;;9.30;5.93;;;;;;;-1.91;44.84;96638.06;5108721;27;20039;-75
2023/02/09 10:04:47;;;;;;;9.40;5.50;;;;;;;-1.75;44.33;96638.00;5097982;27;20094;-76
2023/02/09 10:07:16;;;;;;;10.10;5.35;;;;;;;-1.64;43.34;96636.25;5086309;27;20436;-75
2023/02/09 10:09:56;;;;;;;10.30;5.95;;;;;;;-1.57;43.90;96637.88;5101429;27;20035;-77
2023/02/09 10:12:32;;;;;;;8.45;5.60;;;;;;;-1.50;44.13;96631.06;5126791;27;20032;-79
2023/02/09 10:14:58;;;;;;;8.75;5.50;;;;;;;-1.48;43.77;96629.31;5125844;27;20049;-79
2023/02/09 10:17:23;;;;;;;12.60;7.88;;;;;;;-1.40;44.13;96620.75;5091001;28;20496;-76
2023/02/09 10:20:03;;;;;;;9.38;5.50;;;;;;;-1.46;44.51;96625.91;5125666;27;20034;-74
2023/02/09 10:22:28;;;;;;;11.20;5.82;;;;;;;-1.55;45.05;96603.03;5111591;27;20030;-75
2023/02/09 10:24:54;;;;;;;9.65;4.70;;;;;;;-1.13;44.22;96614.59;5091599;28;20024;-76
2023/02/09 10:27:27;;;;;;;15.77;6.68;;;;;;;-1.14;43.92;96623.13;5120091;27;20038;-74
2023/02/09 10:29:53;;;;;;;16.77;7.43;;;;;;;-1.08;44.00;96616.28;5123315;27;20084;-75
2023/02/09 10:32:26;;;;;;;11.50;6.25;;;;;;;-1.21;44.48;96601.06;5086521;28;20055;-75
2023/02/09 10:34:53;;;;;;;11.63;6.10;;;;;;;-1.04;44.12;96610.28;5112451;27;20027;-76
2023/02/09 10:37:18;;;;;;;7.13;4.45;;;;;;;-0.88;44.79;96613.56;5107843;27;20039;-75
2023/02/09 10:39:45;;;;;;;8.23;4.68;;;;;;;-0.87;44.62;96615.22;5130320;27;20015;-74
2023/02/09 10:42:23;;;;;;;7.47;4.55;;;;;;;-0.77;44.00;96611.75;5110841;28;20032;-73
2023/02/09 10:44:50;;;;;;;9.25;4.90;;;;;;;-0.80;43.50;96596.47;5106300;27;20023;-74
2023/02/09 10:47:18;;;;;;;7.60;4.18;;;;;;;-1.01;42.92;96603.44;5118816;27;20160;-75
2023/02/09 10:50:18;;;;;;;8.18;4.50;;;;;;;-1.07;44.23;96603.50;5111584;28;20059;-74
2023/02/09 10:53:00;;;;;;;10.43;4.85;;;;;;;-0.92;43.92;96582.97;5111366;28;20036;-76
2023/02/09 10:55:31;;;;;;;6.00;3.70;;;;;;;-0.94;43.65;96584.69;5103291;27;20031;-75
2023/02/09 10:58:27;;;;;;;7.88;4.50;;;;;;;-0.96;44.00;96599.16;5113751;27;20035;-74
2023/02/09 11:00:57;;;;;;;6.97;4.28;;;;;;;-0.71;43.48;96592.09;5076588;27;20158;-74
2023/02/09 11:03:25;;;;;;;7.78;4.47;;;;;;;-0.54;44.40;96584.25;5108956;27;20034;-74
2023/02/09 11:06:15;;;;;;;7.93;4.18;;;;;;;-0.51;43.36;96594.44;5115528;27;20035;-74
2023/02/09 11:09:11;;;;;;;8.10;4.95;;;;;;;-0.54;43.45;96586.81;5098349;27;20035;-75
2023/02/09 11:11:37;;;;;;;6.78;3.90;;;;;;;-0.50;43.79;96585.09;5129140;27;20043;-74
2023/02/09 11:14:03;;;;;;;6.15;3.83;;;;;;;-0.37;43.35;96578.09;5131301;27;20034;-74
2023/02/09 11:16:58;;;;;;;9.80;5.60;;;;;;;-0.35;43.67;96563.63;5130693;27;20062;-75
2023/02/09 11:19:51;;;;;;;11.13;4.07;;;;;;;-0.39;42.93;96567.94;5116475;27;20403;-75
2023/02/09 11:23:01;;;;;;;8.18;4.68;;;;;;;-0.15;42.81;96565.91;5119127;27;20044;-75
2023/02/09 11:25:56;;;;;;;7.35;3.08;;;;;;;-0.24;41.87;96559.22;5072058;28;20024;-74
2023/02/09 11:29:02;;;;;;;6.10;3.78;;;;;;;-0.19;42.49;96547.25;5131214;27;20046;-74
2023/02/09 11:31:39;;;;;;;6.53;4.25;;;;;;;0.03;41.80;96558.03;5098809;28;20286;-75
2023/02/09 11:34:13;;;;;;;7.20;3.72;;;;;;;-0.30;41.53;96566.97;5112841;28;20023;-74
2023/02/09 11:37:03;;;;;;;7.75;4.50;;;;;;;-0.36;42.90;96562.78;5111365;28;20051;-74
2023/02/09 11:39:41;;;;;;;6.88;4.05;;;;;;;-0.20;41.74;96554.91;5116651;27;20031;-74
2023/02/09 11:45:09;;;;;;;5.07;3.28;;;;;;;-0.40;42.18;96525.34;5132429;27;20037;-74
2023/02/09 11:47:57;;;;;;;6.07;3.47;;;;;;;-0.30;41.46;96541.44;5115452;27;20062;-74
2023/02/09 11:50:27;;;;;;;5.45;3.50;;;;;;;-0.42;41.83;96537.28;5115054;27;20122;-74